sensor_id;sensor_type;location;lat;lon;timestamp;pressure;altitude;pressure_sealevel;temperature;humidity
61963;BME280;47927;42.646;23.096;2023-03-14T00:00:10;92242.88;;;2.51;45.57
61963;BME280;47927;42.646;23.096;2023-03-14T00:02:36;92223.78;;;1.96;47.15
61963;BME280;47927;42.646;23.096;2023-03-14T00:05:02;92229.59;;;2.40;46.92
61963;BME280;47927;42.646;23.096;2023-03-14T00:07:39;92158.06;;;2.34;45.75
61963;BME280;47927;42.646;23.096;2023-03-14T00:10:11;92226.00;;;2.80;45.43
61963;BME280;47927;42.646;23.096;2023-03-14T00:12:38;92216.03;;;2.69;45.84
61963;BME280;47927;42.646;23.096;2023-03-14T00:15:03;92218.44;;;2.74;45.85
61963;BME280;47927;42.646;23.096;2023-03-14T00:17:30;92213.78;;;2.68;46.19
61963;BME280;47927;42.646;23.096;2023-03-14T00:19:56;92209.84;;;3.00;45.21
61963;BME280;47927;42.646;23.096;2023-03-14T00:22:21;92208.38;;;2.90;45.58
61963;BME280;47927;42.646;23.096;2023-03-14T00:24:47;92197.47;;;2.55;46.32
61963;BME280;47927;42.646;23.096;2023-03-14T00:27:13;92201.94;;;2.28;47.47
61963;BME280;47927;42.646;23.096;2023-03-14T00:29:38;92199.72;;;2.10;48.37
61963;BME280;47927;42.646;23.096;2023-03-14T00:32:04;92200.19;;;2.03;48.79
61963;BME280;47927;42.646;23.096;2023-03-14T00:34:32;92200.47;;;1.93;49.27
61963;BME280;47927;42.646;23.096;2023-03-14T00:36:59;92176.19;;;1.73;49.45
61963;BME280;47927;42.646;23.096;2023-03-14T00:39:25;92191.88;;;1.97;49.29
61963;BME280;47927;42.646;23.096;2023-03-14T00:41:50;92174.34;;;1.91;49.44
61963;BME280;47927;42.646;23.096;2023-03-14T00:44:16;92185.16;;;2.31;48.89
61963;BME280;47927;42.646;23.096;2023-03-14T00:46:41;92188.47;;;2.32;48.75
61963;BME280;47927;42.646;23.096;2023-03-14T00:49:07;92186.84;;;2.18;49.43
61963;BME280;47927;42.646;23.096;2023-03-14T00:51:32;92178.25;;;2.05;49.85
61963;BME280;47927;42.646;23.096;2023-03-14T00:53:59;92179.16;;;2.10;50.11
61963;BME280;47927;42.646;23.096;2023-03-14T00:56:25;92174.63;;;2.62;48.57
61963;BME280;47927;42.646;23.096;2023-03-14T00:58:54;92182.59;;;2.69;48.62
61963;BME280;47927;42.646;23.096;2023-03-14T01:01:20;92174.09;;;2.78;48.48
61963;BME280;47927;42.646;23.096;2023-03-14T01:03:45;92162.66;;;2.96;47.94
61963;BME280;47927;42.646;23.096;2023-03-14T01:08:38;92173.69;;;2.96;47.82
61963;BME280;47927;42.646;23.096;2023-03-14T01:11:33;92177.47;;;2.99;47.75
61963;BME280;47927;42.646;23.096;2023-03-14T01:14:00;92171.28;;;2.62;48.78
61963;BME280;47927;42.646;23.096;2023-03-14T01:16:29;92164.25;;;2.80;48.08
61963;BME280;47927;42.646;23.096;2023-03-14T01:18:59;92165.28;;;2.49;48.80
61963;BME280;47927;42.646;23.096;2023-03-14T01:21:28;92155.69;;;2.20;49.72
61963;BME280;47927;42.646;23.096;2023-03-14T01:23:55;92156.88;;;2.22;50.09
61963;BME280;47927;42.646;23.096;2023-03-14T01:26:24;92150.16;;;2.47;49.65
61963;BME280;47927;42.646;23.096;2023-03-14T01:28:53;92155.31;;;2.47;49.38
61963;BME280;47927;42.646;23.096;2023-03-14T01:31:19;92150.53;;;2.67;48.68
61963;BME280;47927;42.646;23.096;2023-03-14T01:33:45;92157.25;;;2.50;49.73
61963;BME280;47927;42.646;23.096;2023-03-14T01:36:12;92150.88;;;2.57;49.32
61963;BME280;47927;42.646;23.096;2023-03-14T01:38:39;92155.03;;;2.40;49.45
61963;BME280;47927;42.646;23.096;2023-03-14T01:41:08;92152.31;;;2.37;49.37
61963;BME280;47927;42.646;23.096;2023-03-14T01:43:37;92142.78;;;1.81;51.15
61963;BME280;47927;42.646;23.096;2023-03-14T01:48:36;92129.66;;;1.66;52.46
61963;BME280;47927;42.646;23.096;2023-03-14T01:51:02;92136.75;;;1.60;52.68
61963;BME280;47927;42.646;23.096;2023-03-14T01:53:30;92124.91;;;2.02;51.60
61963;BME280;47927;42.646;23.096;2023-03-14T01:55:56;92125.00;;;2.23;50.66
61963;BME280;47927;42.646;23.096;2023-03-14T01:58:24;92118.91;;;2.28;50.37
61963;BME280;47927;42.646;23.096;2023-03-14T02:00:56;92118.75;;;2.33;50.16
61963;BME280;47927;42.646;23.096;2023-03-14T02:03:24;92122.59;;;2.18;50.83
61963;BME280;47927;42.646;23.096;2023-03-14T02:05:53;92123.19;;;2.24;50.58
61963;BME280;47927;42.646;23.096;2023-03-14T02:08:23;92124.69;;;2.25;50.53
61963;BME280;47927;42.646;23.096;2023-03-14T02:10:57;92092.69;;;2.05;50.50
61963;BME280;47927;42.646;23.096;2023-03-14T02:13:35;92121.97;;;2.21;50.75
61963;BME280;47927;42.646;23.096;2023-03-14T02:16:13;92117.75;;;2.17;50.27
61963;BME280;47927;42.646;23.096;2023-03-14T02:18:50;92119.13;;;2.14;50.89
61963;BME280;47927;42.646;23.096;2023-03-14T02:21:48;92127.81;;;1.75;51.99
61963;BME280;47927;42.646;23.096;2023-03-14T02:24:35;92108.97;;;1.10;53.78
61963;BME280;47927;42.646;23.096;2023-03-14T02:27:09;92110.66;;;1.41;53.96
61963;BME280;47927;42.646;23.096;2023-03-14T02:30:10;92107.59;;;1.73;52.63
61963;BME280;47927;42.646;23.096;2023-03-14T02:32:40;92116.66;;;1.71;52.82
61963;BME280;47927;42.646;23.096;2023-03-14T02:35:09;92116.81;;;1.66;53.10
61963;BME280;47927;42.646;23.096;2023-03-14T02:37:44;92078.75;;;1.59;52.75
61963;BME280;47927;42.646;23.096;2023-03-14T02:40:11;92119.53;;;1.69;53.40
61963;BME280;47927;42.646;23.096;2023-03-14T02:42:38;92114.72;;;1.42;53.99
61963;BME280;47927;42.646;23.096;2023-03-14T02:47:44;92122.69;;;1.83;53.25
61963;BME280;47927;42.646;23.096;2023-03-14T02:50:16;92127.16;;;2.04;52.72
61963;BME280;47927;42.646;23.096;2023-03-14T02:52:44;92118.31;;;2.31;51.27
61963;BME280;47927;42.646;23.096;2023-03-14T02:55:09;92111.28;;;2.02;52.13
61963;BME280;47927;42.646;23.096;2023-03-14T02:57:37;92123.53;;;2.05;52.49
61963;BME280;47927;42.646;23.096;2023-03-14T03:00:03;92118.78;;;1.60;53.30
61963;BME280;47927;42.646;23.096;2023-03-14T03:02:33;92117.00;;;1.26;54.30
61963;BME280;47927;42.646;23.096;2023-03-14T03:04:58;92125.59;;;1.56;54.05
61963;BME280;47927;42.646;23.096;2023-03-14T03:07:24;92124.22;;;1.76;53.34
61963;BME280;47927;42.646;23.096;2023-03-14T03:09:51;92116.06;;;1.22;54.74
61963;BME280;47927;42.646;23.096;2023-03-14T03:12:17;92117.88;;;1.56;54.32
61963;BME280;47927;42.646;23.096;2023-03-14T03:14:43;92120.84;;;1.84;53.38
61963;BME280;47927;42.646;23.096;2023-03-14T03:17:09;92120.69;;;1.98;53.12
61963;BME280;47927;42.646;23.096;2023-03-14T03:19:35;92117.34;;;2.06;53.05
61963;BME280;47927;42.646;23.096;2023-03-14T03:22:00;92107.75;;;2.24;51.99
61963;BME280;47927;42.646;23.096;2023-03-14T03:24:26;92116.44;;;2.40;51.30
61963;BME280;47927;42.646;23.096;2023-03-14T03:26:53;92122.66;;;2.39;51.23
61963;BME280;47927;42.646;23.096;2023-03-14T03:29:19;92119.59;;;2.46;51.22
61963;BME280;47927;42.646;23.096;2023-03-14T03:31:45;92095.75;;;2.37;50.51
61963;BME280;47927;42.646;23.096;2023-03-14T03:34:12;92121.34;;;2.33;51.58
61963;BME280;47927;42.646;23.096;2023-03-14T03:36:39;92117.69;;;1.78;53.27
61963;BME280;47927;42.646;23.096;2023-03-14T03:39:05;92112.63;;;1.44;54.22
61963;BME280;47927;42.646;23.096;2023-03-14T03:41:31;92123.91;;;1.60;54.22
61963;BME280;47927;42.646;23.096;2023-03-14T03:43:58;92128.97;;;2.12;52.80
61963;BME280;47927;42.646;23.096;2023-03-14T03:46:24;92127.56;;;2.23;52.14
61963;BME280;47927;42.646;23.096;2023-03-14T03:48:58;92100.09;;;2.07;51.95
61963;BME280;47927;42.646;23.096;2023-03-14T03:51:25;92128.72;;;2.35;52.15
61963;BME280;47927;42.646;23.096;2023-03-14T03:53:51;92124.34;;;2.35;51.85
61963;BME280;47927;42.646;23.096;2023-03-14T03:56:23;92120.03;;;2.10;52.82
61963;BME280;47927;42.646;23.096;2023-03-14T03:58:49;92123.13;;;1.94;53.18
61963;BME280;47927;42.646;23.096;2023-03-14T04:01:15;92131.13;;;1.84;53.16
61963;BME280;47927;42.646;23.096;2023-03-14T04:03:43;92131.00;;;1.72;53.92
61963;BME280;47927;42.646;23.096;2023-03-14T04:06:12;92126.28;;;2.00;53.38
61963;BME280;47927;42.646;23.096;2023-03-14T04:08:39;92123.78;;;2.30;52.20
61963;BME280;47927;42.646;23.096;2023-03-14T04:11:14;92126.34;;;2.30;51.68
61963;BME280;47927;42.646;23.096;2023-03-14T04:14:05;92120.69;;;2.45;51.25
61963;BME280;47927;42.646;23.096;2023-03-14T04:16:32;92096.09;;;2.26;50.98
61963;BME280;47927;42.646;23.096;2023-03-14T04:19:04;92119.34;;;2.39;51.03
61963;BME280;47927;42.646;23.096;2023-03-14T04:21:30;92113.16;;;2.31;51.13
61963;BME280;47927;42.646;23.096;2023-03-14T04:23:56;92105.94;;;2.24;51.05
61963;BME280;47927;42.646;23.096;2023-03-14T04:26:23;92103.22;;;2.30;51.08
61963;BME280;47927;42.646;23.096;2023-03-14T04:28:49;92097.25;;;2.38;51.10
61963;BME280;47927;42.646;23.096;2023-03-14T04:31:19;92098.00;;;2.47;50.70
61963;BME280;47927;42.646;23.096;2023-03-14T04:33:46;92096.81;;;2.36;50.85
61963;BME280;47927;42.646;23.096;2023-03-14T04:36:14;92090.59;;;2.37;50.73
61963;BME280;47927;42.646;23.096;2023-03-14T04:38:40;92092.38;;;2.15;51.22
61963;BME280;47927;42.646;23.096;2023-03-14T04:41:07;92090.03;;;2.31;50.85
61963;BME280;47927;42.646;23.096;2023-03-14T04:43:34;92081.97;;;2.41;50.98
61963;BME280;47927;42.646;23.096;2023-03-14T04:46:04;92081.97;;;2.41;50.83
61963;BME280;47927;42.646;23.096;2023-03-14T04:48:30;92078.47;;;2.46;50.66
61963;BME280;47927;42.646;23.096;2023-03-14T04:50:57;92080.72;;;2.18;51.37
61963;BME280;47927;42.646;23.096;2023-03-14T04:53:23;92072.78;;;2.32;51.18
61963;BME280;47927;42.646;23.096;2023-03-14T04:55:54;92068.25;;;2.28;51.58
61963;BME280;47927;42.646;23.096;2023-03-14T04:58:22;92067.78;;;1.97;52.62
61963;BME280;47927;42.646;23.096;2023-03-14T05:00:50;92068.47;;;2.53;51.17
61963;BME280;47927;42.646;23.096;2023-03-14T05:03:34;92074.47;;;2.57;50.98
61963;BME280;47927;42.646;23.096;2023-03-14T05:06:19;92068.09;;;2.84;51.12
61963;BME280;47927;42.646;23.096;2023-03-14T05:09:14;92071.38;;;4.26;48.63
61963;BME280;47927;42.646;23.096;2023-03-14T05:12:15;92062.16;;;6.66;43.22
61963;BME280;47927;42.646;23.096;2023-03-14T05:15:10;92056.38;;;8.51;40.49
61963;BME280;47927;42.646;23.096;2023-03-14T05:17:50;92061.59;;;8.78;38.38
61963;BME280;47927;42.646;23.096;2023-03-14T05:20:28;92059.66;;;11.61;33.99
61963;BME280;47927;42.646;23.096;2023-03-14T05:23:21;92054.44;;;14.35;29.88
61963;BME280;47927;42.646;23.096;2023-03-14T05:26:04;92061.94;;;16.26;26.87
61963;BME280;47927;42.646;23.096;2023-03-14T05:28:48;92054.59;;;17.74;25.27
61963;BME280;47927;42.646;23.096;2023-03-14T05:31:40;92060.72;;;18.80;23.00
61963;BME280;47927;42.646;23.096;2023-03-14T05:34:33;92062.50;;;19.74;22.58
61963;BME280;47927;42.646;23.096;2023-03-14T05:37:25;92055.31;;;20.42;21.12
61963;BME280;47927;42.646;23.096;2023-03-14T05:40:27;92048.84;;;20.82;20.80
61963;BME280;47927;42.646;23.096;2023-03-14T05:43:07;92059.59;;;22.36;19.24
61963;BME280;47927;42.646;23.096;2023-03-14T05:45:53;92059.13;;;23.27;17.93
61963;BME280;47927;42.646;23.096;2023-03-14T05:48:41;92056.00;;;23.10;18.63
61963;BME280;47927;42.646;23.096;2023-03-14T05:51:13;92053.59;;;24.23;17.26
61963;BME280;47927;42.646;23.096;2023-03-14T05:53:58;92059.34;;;24.73;16.36
61963;BME280;47927;42.646;23.096;2023-03-14T05:56:43;92056.59;;;24.91;16.63
61963;BME280;47927;42.646;23.096;2023-03-14T05:59:34;92059.13;;;22.68;17.80
61963;BME280;47927;42.646;23.096;2023-03-14T06:02:10;92063.78;;;20.76;19.73
61963;BME280;47927;42.646;23.096;2023-03-14T06:04:49;92055.31;;;20.30;20.43
61963;BME280;47927;42.646;23.096;2023-03-14T06:07:15;92055.50;;;20.10;20.54
61963;BME280;47927;42.646;23.096;2023-03-14T06:09:41;92058.59;;;20.34;19.57
61963;BME280;47927;42.646;23.096;2023-03-14T06:12:07;92056.91;;;21.82;19.10
61963;BME280;47927;42.646;23.096;2023-03-14T06:14:38;92056.63;;;23.60;18.01
61963;BME280;47927;42.646;23.096;2023-03-14T06:17:04;92054.56;;;25.58;15.25
61963;BME280;47927;42.646;23.096;2023-03-14T06:19:36;92066.41;;;27.05;14.23
61963;BME280;47927;42.646;23.096;2023-03-14T06:22:02;92056.81;;;26.78;14.06
61963;BME280;47927;42.646;23.096;2023-03-14T06:24:28;92061.56;;;27.45;13.60
61963;BME280;47927;42.646;23.096;2023-03-14T06:26:53;92056.09;;;28.27;12.68
61963;BME280;47927;42.646;23.096;2023-03-14T06:29:19;92057.78;;;28.93;11.92
61963;BME280;47927;42.646;23.096;2023-03-14T06:31:45;92058.59;;;29.59;11.60
61963;BME280;47927;42.646;23.096;2023-03-14T06:34:14;92061.59;;;29.67;12.10
61963;BME280;47927;42.646;23.096;2023-03-14T06:36:39;92058.09;;;28.32;11.72
61963;BME280;47927;42.646;23.096;2023-03-14T06:39:05;92054.31;;;27.71;13.09
61963;BME280;47927;42.646;23.096;2023-03-14T06:41:33;92053.22;;;28.62;12.30
61963;BME280;47927;42.646;23.096;2023-03-14T06:43:59;92048.94;;;28.18;12.44
61963;BME280;47927;42.646;23.096;2023-03-14T06:46:26;92041.66;;;27.92;12.12
61963;BME280;47927;42.646;23.096;2023-03-14T06:48:52;92043.44;;;27.34;13.32
61963;BME280;47927;42.646;23.096;2023-03-14T06:51:18;92062.06;;;27.90;12.22
61963;BME280;47927;42.646;23.096;2023-03-14T06:53:44;92047.66;;;26.85;12.69
61963;BME280;47927;42.646;23.096;2023-03-14T06:56:12;92055.38;;;26.48;13.58
61963;BME280;47927;42.646;23.096;2023-03-14T06:58:38;92045.88;;;26.02;13.22
61963;BME280;47927;42.646;23.096;2023-03-14T07:01:10;92050.13;;;26.39;13.68
61963;BME280;47927;42.646;23.096;2023-03-14T07:03:41;92048.66;;;27.84;12.42
61963;BME280;47927;42.646;23.096;2023-03-14T07:06:06;92047.47;;;28.43;11.74
61963;BME280;47927;42.646;23.096;2023-03-14T07:08:32;92035.94;;;28.37;11.64
61963;BME280;47927;42.646;23.096;2023-03-14T07:10:59;92049.06;;;27.16;12.80
61963;BME280;47927;42.646;23.096;2023-03-14T07:13:25;92041.13;;;26.51;12.99
61963;BME280;47927;42.646;23.096;2023-03-14T07:15:56;92034.81;;;25.80;13.71
61963;BME280;47927;42.646;23.096;2023-03-14T07:18:22;92042.94;;;26.30;13.40
61963;BME280;47927;42.646;23.096;2023-03-14T07:20:48;92033.44;;;27.76;12.61
61963;BME280;47927;42.646;23.096;2023-03-14T07:23:14;92032.97;;;28.61;12.28
61963;BME280;47927;42.646;23.096;2023-03-14T07:25:45;92026.94;;;28.40;12.04
61963;BME280;47927;42.646;23.096;2023-03-14T07:28:12;92026.56;;;28.21;12.12
61963;BME280;47927;42.646;23.096;2023-03-14T07:30:40;92032.28;;;27.36;12.42
61963;BME280;47927;42.646;23.096;2023-03-14T07:33:13;92029.47;;;27.91;12.56
61963;BME280;47927;42.646;23.096;2023-03-14T07:35:38;92028.28;;;26.90;12.79
61963;BME280;47927;42.646;23.096;2023-03-14T07:38:04;92028.06;;;26.73;13.25
61963;BME280;47927;42.646;23.096;2023-03-14T07:40:37;92031.66;;;27.05;13.74
61963;BME280;47927;42.646;23.096;2023-03-14T07:43:05;92036.50;;;26.36;13.20
61963;BME280;47927;42.646;23.096;2023-03-14T07:45:47;92018.44;;;27.17;13.23
61963;BME280;47927;42.646;23.096;2023-03-14T07:48:13;92014.44;;;27.73;12.41
61963;BME280;47927;42.646;23.096;2023-03-14T07:50:38;92008.41;;;26.76;12.87
61963;BME280;47927;42.646;23.096;2023-03-14T07:53:04;92018.03;;;27.91;12.45
61963;BME280;47927;42.646;23.096;2023-03-14T07:55:29;92015.31;;;28.11;12.41
61963;BME280;47927;42.646;23.096;2023-03-14T07:57:55;92012.47;;;27.48;12.49
61963;BME280;47927;42.646;23.096;2023-03-14T08:00:20;92019.38;;;25.99;13.18
61963;BME280;47927;42.646;23.096;2023-03-14T08:02:46;92012.31;;;25.42;13.91
61963;BME280;47927;42.646;23.096;2023-03-14T08:05:11;92010.81;;;25.26;14.66
61963;BME280;47927;42.646;23.096;2023-03-14T08:07:37;92007.00;;;26.61;13.41
61963;BME280;47927;42.646;23.096;2023-03-14T08:10:03;92005.50;;;26.09;14.01
61963;BME280;47927;42.646;23.096;2023-03-14T08:12:29;92000.97;;;25.86;13.84
61963;BME280;47927;42.646;23.096;2023-03-14T08:14:55;92012.66;;;26.18;13.52
61963;BME280;47927;42.646;23.096;2023-03-14T08:17:20;92012.50;;;26.72;13.75
61963;BME280;47927;42.646;23.096;2023-03-14T08:19:46;92010.47;;;27.43;12.98
61963;BME280;47927;42.646;23.096;2023-03-14T08:22:11;92008.50;;;26.02;13.77
61963;BME280;47927;42.646;23.096;2023-03-14T08:24:36;92014.28;;;24.60;14.79
61963;BME280;47927;42.646;23.096;2023-03-14T08:27:02;92004.03;;;23.37;15.82
61963;BME280;47927;42.646;23.096;2023-03-14T08:29:28;92001.41;;;24.59;15.01
61963;BME280;47927;42.646;23.096;2023-03-14T08:31:53;91993.38;;;25.55;14.29
61963;BME280;47927;42.646;23.096;2023-03-14T08:34:20;91999.91;;;25.54;14.30
61963;BME280;47927;42.646;23.096;2023-03-14T08:36:45;91995.13;;;24.71;14.38
61963;BME280;47927;42.646;23.096;2023-03-14T08:39:11;91989.53;;;24.26;15.22
61963;BME280;47927;42.646;23.096;2023-03-14T08:41:37;91994.13;;;24.26;15.44
61963;BME280;47927;42.646;23.096;2023-03-14T08:44:08;91982.44;;;24.66;14.77
61963;BME280;47927;42.646;23.096;2023-03-14T08:46:34;91978.72;;;24.96;14.39
61963;BME280;47927;42.646;23.096;2023-03-14T08:49:00;91974.84;;;24.40;14.96
61963;BME280;47927;42.646;23.096;2023-03-14T08:51:26;91977.91;;;23.35;16.06
61963;BME280;47927;42.646;23.096;2023-03-14T08:53:51;91975.78;;;22.84;16.69
61963;BME280;47927;42.646;23.096;2023-03-14T08:56:17;91964.56;;;22.71;16.79
61963;BME280;47927;42.646;23.096;2023-03-14T08:58:42;91966.31;;;23.94;15.55
61963;BME280;47927;42.646;23.096;2023-03-14T09:01:10;91956.41;;;25.48;14.88
61963;BME280;47927;42.646;23.096;2023-03-14T09:03:37;91959.56;;;23.74;15.22
61963;BME280;47927;42.646;23.096;2023-03-14T09:06:09;91948.09;;;23.22;16.39
61963;BME280;47927;42.646;23.096;2023-03-14T09:08:36;91954.38;;;22.11;16.47
61963;BME280;47927;42.646;23.096;2023-03-14T09:11:02;91940.97;;;20.73;18.06
61963;BME280;47927;42.646;23.096;2023-03-14T09:13:27;91943.34;;;21.59;17.05
61963;BME280;47927;42.646;23.096;2023-03-14T09:15:54;91938.19;;;22.18;17.01
61963;BME280;47927;42.646;23.096;2023-03-14T09:18:19;91926.31;;;23.70;15.60
61963;BME280;47927;42.646;23.096;2023-03-14T09:20:45;91921.22;;;23.20;15.92
61963;BME280;47927;42.646;23.096;2023-03-14T09:23:10;91929.56;;;23.55;15.54
61963;BME280;47927;42.646;23.096;2023-03-14T09:25:36;91910.06;;;22.20;16.82
61963;BME280;47927;42.646;23.096;2023-03-14T09:28:01;91925.38;;;23.03;15.66
61963;BME280;47927;42.646;23.096;2023-03-14T09:30:27;91912.81;;;23.12;16.61
61963;BME280;47927;42.646;23.096;2023-03-14T09:32:53;91901.53;;;23.54;15.20
61963;BME280;47927;42.646;23.096;2023-03-14T09:35:18;91908.97;;;23.93;15.90
61963;BME280;47927;42.646;23.096;2023-03-14T09:37:44;91904.63;;;23.62;16.37
61963;BME280;47927;42.646;23.096;2023-03-14T09:40:15;91894.25;;;23.73;15.38
61963;BME280;47927;42.646;23.096;2023-03-14T09:42:41;91887.84;;;23.28;15.60
61963;BME280;47927;42.646;23.096;2023-03-14T09:45:34;91889.31;;;23.90;15.11
61963;BME280;47927;42.646;23.096;2023-03-14T09:48:02;91876.78;;;22.84;15.69
61963;BME280;47927;42.646;23.096;2023-03-14T09:50:44;91878.88;;;22.98;15.07
61963;BME280;47927;42.646;23.096;2023-03-14T09:53:20;91881.69;;;23.04;15.49
61963;BME280;47927;42.646;23.096;2023-03-14T09:55:49;91873.13;;;22.04;16.34
61963;BME280;47927;42.646;23.096;2023-03-14T09:58:20;91862.63;;;22.32;16.14
61963;BME280;47927;42.646;23.096;2023-03-14T10:00:46;91861.91;;;23.05;15.94
61963;BME280;47927;42.646;23.096;2023-03-14T10:05:39;91860.72;;;21.51;15.72
61963;BME280;47927;42.646;23.096;2023-03-14T10:08:05;91857.56;;;21.66;15.61
61963;BME280;47927;42.646;23.096;2023-03-14T10:10:33;91848.44;;;19.74;17.11
61963;BME280;47927;42.646;23.096;2023-03-14T10:13:07;91847.88;;;20.05;16.80
61963;BME280;47927;42.646;23.096;2023-03-14T10:15:37;91841.22;;;19.24;17.62
61963;BME280;47927;42.646;23.096;2023-03-14T10:18:04;91834.41;;;18.39;18.34
61963;BME280;47927;42.646;23.096;2023-03-14T10:20:48;91827.03;;;19.18;17.22
61963;BME280;47927;42.646;23.096;2023-03-14T10:25:45;91822.00;;;18.52;17.69
61963;BME280;47927;42.646;23.096;2023-03-14T10:28:26;91823.69;;;19.43;16.88
61963;BME280;47927;42.646;23.096;2023-03-14T10:30:52;91810.09;;;20.39;16.50
61963;BME280;47927;42.646;23.096;2023-03-14T10:35:44;91809.19;;;19.60;17.02
61963;BME280;47927;42.646;23.096;2023-03-14T10:38:15;91802.44;;;20.32;17.77
61963;BME280;47927;42.646;23.096;2023-03-14T10:40:47;91803.38;;;20.25;14.89
61963;BME280;47927;42.646;23.096;2023-03-14T10:43:19;91800.28;;;20.05;15.29
61963;BME280;47927;42.646;23.096;2023-03-14T10:45:56;91803.00;;;20.93;15.61
61963;BME280;47927;42.646;23.096;2023-03-14T10:48:29;91797.50;;;20.43;15.87
61963;BME280;47927;42.646;23.096;2023-03-14T10:53:21;91782.91;;;20.17;16.84
61963;BME280;47927;42.646;23.096;2023-03-14T10:55:46;91779.09;;;20.18;16.79
61963;BME280;47927;42.646;23.096;2023-03-14T10:58:19;91766.78;;;20.59;16.47
61963;BME280;47927;42.646;23.096;2023-03-14T11:03:43;91759.19;;;19.91;17.37
61963;BME280;47927;42.646;23.096;2023-03-14T11:06:25;91760.91;;;20.20;16.20
61963;BME280;47927;42.646;23.096;2023-03-14T11:11:22;91748.66;;;20.35;16.17
61963;BME280;47927;42.646;23.096;2023-03-14T11:28:13;91712.16;;;17.58;19.64
61963;BME280;47927;42.646;23.096;2023-03-14T11:30:48;91709.59;;;16.69;20.43
61963;BME280;47927;42.646;23.096;2023-03-14T11:33:24;91698.69;;;17.69;19.35
61963;BME280;47927;42.646;23.096;2023-03-14T11:38:38;91696.25;;;17.62;20.28
61963;BME280;47927;42.646;23.096;2023-03-14T11:41:12;91688.09;;;18.02;19.55
61963;BME280;47927;42.646;23.096;2023-03-14T11:43:40;91680.06;;;18.21;19.31
61963;BME280;47927;42.646;23.096;2023-03-14T11:46:13;91680.13;;;19.24;18.98
61963;BME280;47927;42.646;23.096;2023-03-14T11:51:20;91665.53;;;18.42;18.40
61963;BME280;47927;42.646;23.096;2023-03-14T11:54:02;91659.91;;;18.28;19.37
61963;BME280;47927;42.646;23.096;2023-03-14T11:59:03;91653.28;;;17.19;20.42
61963;BME280;47927;42.646;23.096;2023-03-14T12:02:01;91646.22;;;17.45;19.46
61963;BME280;47927;42.646;23.096;2023-03-14T12:07:20;91617.56;;;18.86;18.33
61963;BME280;47927;42.646;23.096;2023-03-14T12:09:48;91619.34;;;17.21;19.80
61963;BME280;47927;42.646;23.096;2023-03-14T12:12:19;91624.13;;;16.77;20.59
61963;BME280;47927;42.646;23.096;2023-03-14T12:14:54;91626.91;;;17.36;20.29
61963;BME280;47927;42.646;23.096;2023-03-14T12:17:37;91622.44;;;17.49;19.81
61963;BME280;47927;42.646;23.096;2023-03-14T12:22:45;91603.69;;;18.18;19.33
61963;BME280;47927;42.646;23.096;2023-03-14T12:25:15;91604.09;;;18.04;19.99
61963;BME280;47927;42.646;23.096;2023-03-14T12:30:36;91595.28;;;17.23;19.05
61963;BME280;47927;42.646;23.096;2023-03-14T12:35:47;91589.09;;;17.59;17.99
61963;BME280;47927;42.646;23.096;2023-03-14T12:41:10;91566.69;;;17.38;18.57
61963;BME280;47927;42.646;23.096;2023-03-14T12:43:39;91559.97;;;17.79;17.94
61963;BME280;47927;42.646;23.096;2023-03-14T12:51:36;91559.28;;;16.54;19.63
61963;BME280;47927;42.646;23.096;2023-03-14T13:02:01;91552.91;;;17.17;19.97
61963;BME280;47927;42.646;23.096;2023-03-14T13:04:50;91538.56;;;17.76;19.62
61963;BME280;47927;42.646;23.096;2023-03-14T13:07:32;91543.84;;;17.18;19.65
61963;BME280;47927;42.646;23.096;2023-03-14T13:12:29;91535.78;;;16.63;20.99
61963;BME280;47927;42.646;23.096;2023-03-14T13:14:59;91529.66;;;16.17;21.01
61963;BME280;47927;42.646;23.096;2023-03-14T13:17:29;91525.81;;;16.22;20.64
61963;BME280;47927;42.646;23.096;2023-03-14T13:19:57;91512.38;;;16.36;20.83
61963;BME280;47927;42.646;23.096;2023-03-14T13:22:28;91515.66;;;16.24;21.30
61963;BME280;47927;42.646;23.096;2023-03-14T13:25:04;91485.34;;;16.36;20.42
61963;BME280;47927;42.646;23.096;2023-03-14T13:27:32;91512.28;;;16.40;20.75
61963;BME280;47927;42.646;23.096;2023-03-14T13:30:19;91505.66;;;15.99;21.87
61963;BME280;47927;42.646;23.096;2023-03-14T13:32:47;91493.44;;;15.92;21.54
61963;BME280;47927;42.646;23.096;2023-03-14T13:35:20;91490.25;;;16.50;21.19
61963;BME280;47927;42.646;23.096;2023-03-14T13:37:47;91491.16;;;15.94;21.44
61963;BME280;47927;42.646;23.096;2023-03-14T13:40:47;91479.47;;;16.45;20.76
61963;BME280;47927;42.646;23.096;2023-03-14T13:43:19;91478.19;;;16.36;21.38
61963;BME280;47927;42.646;23.096;2023-03-14T13:48:15;91464.28;;;15.70;21.67
61963;BME280;47927;42.646;23.096;2023-03-14T13:50:53;91458.97;;;16.07;21.68
61963;BME280;47927;42.646;23.096;2023-03-14T13:53:19;91455.09;;;16.60;21.37
61963;BME280;47927;42.646;23.096;2023-03-14T13:55:45;91456.78;;;16.67;20.63
61963;BME280;47927;42.646;23.096;2023-03-14T13:58:28;91444.19;;;16.46;21.45
61963;BME280;47927;42.646;23.096;2023-03-14T14:00:57;91423.56;;;16.28;21.09
61963;BME280;47927;42.646;23.096;2023-03-14T14:03:24;91445.31;;;16.12;21.26
61963;BME280;47927;42.646;23.096;2023-03-14T14:05:50;91440.47;;;15.94;21.07
61963;BME280;47927;42.646;23.096;2023-03-14T14:08:15;91429.81;;;15.48;21.58
61963;BME280;47927;42.646;23.096;2023-03-14T14:10:41;91419.00;;;15.63;20.55
61963;BME280;47927;42.646;23.096;2023-03-14T14:13:11;91420.47;;;15.64;20.62
61963;BME280;47927;42.646;23.096;2023-03-14T14:15:43;91395.50;;;15.39;20.23
61963;BME280;47927;42.646;23.096;2023-03-14T14:18:12;91403.22;;;16.15;19.88
61963;BME280;47927;42.646;23.096;2023-03-14T14:20:42;91400.94;;;16.63;19.53
61963;BME280;47927;42.646;23.096;2023-03-14T14:23:27;91402.97;;;16.10;20.37
61963;BME280;47927;42.646;23.096;2023-03-14T14:25:58;91395.88;;;16.23;20.30
61963;BME280;47927;42.646;23.096;2023-03-14T14:28:32;91389.06;;;15.60;20.50